Time;durP1;ratioP1;P1;durP2;ratioP2;P2;SDS_P1;SDS_P2;PMS_P1;PMS_P2;Temp;Humidity;BMP_temperature;BMP_pressure;BME280_temperature;BME280_humidity;BME280_pressure;Samples;Min_cycle;Max_cycle;Signal;HPM_P1;HPM_P2
2021/06/18 00:00:55;;;;;;;14.02;6.95;;;;;;;;;;5069541;28;20055;-72
2021/06/18 00:03:20;;;;;;;13.18;7.18;;;;;;;;;;5071140;28;20496;-73
2021/06/18 00:05:46;;;;;;;13.93;7.28;;;;;;;;;;5067081;28;20024;-73
2021/06/18 00:08:11;;;;;;;13.63;7.53;;;;;;;;;;5070428;28;20480;-73
2021/06/18 00:10:37;;;;;;;16.58;8.13;;;;;;;;;;5070207;28;20086;-73
2021/06/18 00:13:02;;;;;;;14.40;8.23;;;;;;;;;;5068651;28;20372;-73
2021/06/18 00:15:27;;;;;;;11.85;7.38;;;;;;;;;;5065455;28;20074;-73
2021/06/18 00:17:56;;;;;;;15.98;8.07;;;;;;;;;;5071571;28;20025;-73
2021/06/18 00:20:21;;;;;;;17.83;8.02;;;;;;;;;;5069708;28;20476;-72
2021/06/18 00:22:47;;;;;;;13.27;7.93;;;;;;;;;;5068946;28;20052;-73
2021/06/18 00:25:13;;;;;;;14.63;8.68;;;;;;;;;;5072556;28;20024;-73
2021/06/18 00:27:39;;;;;;;15.57;8.63;;;;;;;;;;5072616;28;20028;-73
2021/06/18 00:30:05;;;;;;;15.00;8.73;;;;;;;;;;5073204;28;20069;-73
2021/06/18 00:32:30;;;;;;;17.20;8.63;;;;;;;;;;5072905;28;20024;-73
2021/06/18 00:34:56;;;;;;;14.23;8.18;;;;;;;;;;5070318;28;20040;-73
2021/06/18 00:37:21;;;;;;;14.05;8.10;;;;;;;;;;5074405;28;20020;-73
2021/06/18 00:39:46;;;;;;;16.85;8.55;;;;;;;;;;5071666;28;20028;-73
2021/06/18 00:42:12;;;;;;;15.95;8.50;;;;;;;;;;5074778;28;20172;-73
2021/06/18 00:44:37;;;;;;;17.25;8.88;;;;;;;;;;5072976;28;20028;-73
2021/06/18 00:47:03;;;;;;;13.02;8.20;;;;;;;;;;5073477;28;20028;-73
2021/06/18 00:49:28;;;;;;;14.82;8.27;;;;;;;;;;5072478;28;20020;-73
2021/06/18 00:51:55;;;;;;;16.45;9.15;;;;;;;;;;5074461;28;20020;-73
2021/06/18 00:54:30;;;;;;;16.77;9.87;;;;;;;;;;5072308;28;20062;-73
2021/06/18 00:56:59;;;;;;;15.88;9.73;;;;;;;;;;5073485;28;20109;-73
2021/06/18 00:59:25;;;;;;;15.15;9.85;;;;;;;;;;5074626;28;20507;-73
2021/06/18 01:01:50;;;;;;;20.08;10.48;;;;;;;;;;5073175;28;20029;-73
2021/06/18 01:04:15;;;;;;;18.48;9.43;;;;;;;;;;5073783;28;20056;-73
2021/06/18 01:06:43;;;;;;;20.08;9.95;;;;;;;;;;5069848;28;20020;-73
2021/06/18 01:09:09;;;;;;;20.10;10.90;;;;;;;;;;5072168;28;20021;-73
2021/06/18 01:11:37;;;;;;;19.93;10.40;;;;;;;;;;5075680;28;20107;-73
2021/06/18 01:14:23;;;;;;;22.37;10.90;;;;;;;;;;5075361;28;20079;-73
2021/06/18 01:16:52;;;;;;;19.23;10.20;;;;;;;;;;5071814;28;20033;-73
2021/06/18 01:19:50;;;;;;;19.93;10.73;;;;;;;;;;5072493;28;20404;-73
2021/06/18 01:22:22;;;;;;;17.80;10.60;;;;;;;;;;5027527;28;20045;-73
2021/06/18 01:25:04;;;;;;;23.80;11.60;;;;;;;;;;5072111;28;20021;-72
2021/06/18 01:27:53;;;;;;;18.97;10.27;;;;;;;;;;5071954;28;20032;-72
2021/06/18 01:30:20;;;;;;;20.33;11.17;;;;;;;;;;5041187;28;20032;-73
2021/06/18 01:33:12;;;;;;;19.73;11.43;;;;;;;;;;5074297;28;20024;-73
2021/06/18 01:35:39;;;;;;;21.33;11.63;;;;;;;;;;5070389;28;20353;-73
2021/06/18 01:38:07;;;;;;;19.43;11.20;;;;;;;;;;5072420;28;20025;-72
2021/06/18 01:40:33;;;;;;;21.40;10.97;;;;;;;;;;5070020;28;20081;-73
2021/06/18 01:43:00;;;;;;;21.03;11.70;;;;;;;;;;5068763;28;20017;-73
2021/06/18 01:45:26;;;;;;;23.10;11.30;;;;;;;;;;5069857;28;20095;-73
2021/06/18 01:47:54;;;;;;;19.73;11.63;;;;;;;;;;5075260;28;20024;-73
2021/06/18 01:50:20;;;;;;;20.60;12.07;;;;;;;;;;5073921;28;20020;-73
2021/06/18 01:52:55;;;;;;;21.50;12.37;;;;;;;;;;5070703;28;20069;-73
2021/06/18 01:55:22;;;;;;;20.87;12.27;;;;;;;;;;5072023;28;20465;-73
2021/06/18 01:57:48;;;;;;;20.97;11.20;;;;;;;;;;5072600;28;20028;-72
2021/06/18 02:00:14;;;;;;;20.73;12.87;;;;;;;;;;5073667;28;20078;-72
2021/06/18 02:02:41;;;;;;;23.43;11.63;;;;;;;;;;5074250;28;20056;-73
2021/06/18 02:05:07;;;;;;;25.80;12.20;;;;;;;;;;5072392;28;20115;-73
2021/06/18 02:07:33;;;;;;;24.23;12.97;;;;;;;;;;5068855;28;20052;-73
2021/06/18 02:09:59;;;;;;;20.90;12.03;;;;;;;;;;5071056;28;20473;-73
2021/06/18 02:12:25;;;;;;;20.80;11.80;;;;;;;;;;5071746;28;20013;-73
2021/06/18 02:14:51;;;;;;;21.50;12.07;;;;;;;;;;5070749;28;20361;-72
2021/06/18 02:17:17;;;;;;;24.20;12.23;;;;;;;;;;5073241;28;20073;-73
2021/06/18 02:19:43;;;;;;;24.43;12.93;;;;;;;;;;5068504;28;20044;-73
2021/06/18 02:22:10;;;;;;;22.83;12.70;;;;;;;;;;5072618;28;20026;-72
2021/06/18 02:24:36;;;;;;;24.70;13.07;;;;;;;;;;5070385;28;20035;-70
2021/06/18 02:27:02;;;;;;;20.67;12.20;;;;;;;;;;5048836;28;20090;-70
2021/06/18 02:29:28;;;;;;;23.27;13.37;;;;;;;;;;5069983;28;20031;-70
2021/06/18 02:31:55;;;;;;;25.33;13.13;;;;;;;;;;5071102;28;20391;-69
2021/06/18 02:34:20;;;;;;;23.67;13.67;;;;;;;;;;5072037;28;20013;-69
2021/06/18 02:36:45;;;;;;;23.47;12.70;;;;;;;;;;5072151;28;20136;-69
2021/06/18 02:39:11;;;;;;;23.10;13.30;;;;;;;;;;5068939;28;20082;-69
2021/06/18 02:41:37;;;;;;;26.30;14.03;;;;;;;;;;5071843;28;20418;-70
2021/06/18 02:44:03;;;;;;;29.07;15.63;;;;;;;;;;5071366;28;20108;-69
2021/06/18 02:47:01;;;;;;;26.60;14.50;;;;;;;;;;5068599;28;20388;-69
2021/06/18 02:49:33;;;;;;;23.73;12.83;;;;;;;;;;5028361;28;20437;-69
2021/06/18 02:52:01;;;;;;;27.05;13.68;;;;;;;;;;5023491;28;20030;-69
2021/06/18 02:54:32;;;;;;;26.27;15.63;;;;;;;;;;5028538;28;20108;-69
2021/06/18 02:56:59;;;;;;;24.87;13.87;;;;;;;;;;5028265;28;20457;-69
2021/06/18 02:59:35;;;;;;;32.53;15.20;;;;;;;;;;5024974;28;20468;-70
2021/06/18 03:02:01;;;;;;;25.53;14.17;;;;;;;;;;5028354;28;20471;-69
2021/06/18 03:04:28;;;;;;;28.40;15.33;;;;;;;;;;5028542;28;20037;-69
2021/06/18 03:06:58;;;;;;;26.30;15.23;;;;;;;;;;5028788;28;20034;-70
2021/06/18 03:09:28;;;;;;;23.93;14.60;;;;;;;;;;5026131;28;20112;-70
2021/06/18 03:11:55;;;;;;;28.67;14.70;;;;;;;;;;5027298;28;20037;-70
2021/06/18 03:14:21;;;;;;;24.57;13.70;;;;;;;;;;5029039;28;20454;-69
2021/06/18 03:16:48;;;;;;;27.87;15.40;;;;;;;;;;5024993;28;20136;-70
2021/06/18 03:19:15;;;;;;;27.23;14.47;;;;;;;;;;5028790;28;20494;-69
2021/06/18 03:21:41;;;;;;;25.03;14.30;;;;;;;;;;5025376;28;20032;-69
2021/06/18 03:24:07;;;;;;;28.80;15.73;;;;;;;;;;5030099;28;20494;-70
2021/06/18 03:26:32;;;;;;;31.33;16.30;;;;;;;;;;5070208;28;20034;-69
2021/06/18 03:28:58;;;;;;;31.00;16.63;;;;;;;;;;5068835;28;20410;-69
2021/06/18 03:31:25;;;;;;;26.87;15.90;;;;;;;;;;5067799;28;20016;-69
2021/06/18 03:33:51;;;;;;;28.97;16.00;;;;;;;;;;5067512;28;20043;-70
2021/06/18 03:36:26;;;;;;;31.17;17.47;;;;;;;;;;5070950;28;20032;-69
2021/06/18 03:38:52;;;;;;;29.83;17.43;;;;;;;;;;5070545;28;20067;-69
2021/06/18 03:41:19;;;;;;;31.93;16.40;;;;;;;;;;5068324;28;20019;-69
2021/06/18 03:43:44;;;;;;;31.47;17.07;;;;;;;;;;5066506;28;20387;-69
2021/06/18 03:46:10;;;;;;;37.17;17.53;;;;;;;;;;5068582;28;20050;-69
2021/06/18 03:48:36;;;;;;;31.63;17.73;;;;;;;;;;5069837;28;20112;-69
2021/06/18 03:51:04;;;;;;;25.57;16.03;;;;;;;;;;5067713;28;20020;-69
2021/06/18 03:53:29;;;;;;;27.43;14.77;;;;;;;;;;5071671;28;20021;-69
2021/06/18 03:55:54;;;;;;;29.23;15.60;;;;;;;;;;5067305;28;20503;-69
2021/06/18 03:58:21;;;;;;;27.10;15.83;;;;;;;;;;5068344;28;20102;-69
2021/06/18 04:00:47;;;;;;;24.13;14.37;;;;;;;;;;5069187;28;20028;-69
2021/06/18 04:03:13;;;;;;;28.67;15.90;;;;;;;;;;5070686;28;20044;-69
2021/06/18 04:05:39;;;;;;;26.73;15.83;;;;;;;;;;5071208;28;20032;-69
2021/06/18 04:08:05;;;;;;;26.20;15.63;;;;;;;;;;5074199;28;20384;-69
2021/06/18 04:10:31;;;;;;;26.17;15.27;;;;;;;;;;5070559;28;20017;-68
2021/06/18 04:12:57;;;;;;;26.60;14.57;;;;;;;;;;5068034;28;20089;-68
2021/06/18 04:15:23;;;;;;;25.97;15.00;;;;;;;;;;5068046;28;20111;-68
2021/06/18 04:17:48;;;;;;;23.25;13.50;;;;;;;;;;5065443;28;20108;-68
2021/06/18 04:20:15;;;;;;;25.25;13.43;;;;;;;;;;5063235;28;20532;-68
2021/06/18 04:22:40;;;;;;;21.83;12.98;;;;;;;;;;5069689;28;20024;-68
2021/06/18 04:25:06;;;;;;;21.88;13.80;;;;;;;;;;5069326;28;20025;-67
2021/06/18 04:27:34;;;;;;;23.38;12.52;;;;;;;;;;5069575;28;20437;-67
2021/06/18 04:30:00;;;;;;;23.25;13.07;;;;;;;;;;5070178;28;20092;-68
2021/06/18 04:32:28;;;;;;;20.98;12.32;;;;;;;;;;5069625;28;20397;-67
2021/06/18 04:34:53;;;;;;;21.20;12.95;;;;;;;;;;5069258;28;20083;-68
2021/06/18 04:37:19;;;;;;;23.70;13.38;;;;;;;;;;5070746;28;20025;-68
2021/06/18 04:39:44;;;;;;;25.13;13.80;;;;;;;;;;5069368;28;20042;-68
2021/06/18 04:42:09;;;;;;;24.73;13.32;;;;;;;;;;5068755;28;20025;-68
2021/06/18 04:44:35;;;;;;;18.73;12.18;;;;;;;;;;5069086;28;20028;-68
2021/06/18 04:47:00;;;;;;;19.27;12.00;;;;;;;;;;5070615;28;20024;-67
2021/06/18 04:49:25;;;;;;;19.38;11.13;;;;;;;;;;5066775;28;20029;-67
2021/06/18 04:51:51;;;;;;;19.80;12.18;;;;;;;;;;5066810;28;20452;-67
2021/06/18 04:54:16;;;;;;;21.70;12.52;;;;;;;;;;5069466;28;20028;-67
2021/06/18 04:56:41;;;;;;;20.08;12.07;;;;;;;;;;5069117;28;20043;-67
2021/06/18 04:59:07;;;;;;;22.25;11.45;;;;;;;;;;5069606;28;20039;-67
2021/06/18 05:01:32;;;;;;;20.50;11.45;;;;;;;;;;5068531;28;20603;-67
2021/06/18 05:03:58;;;;;;;20.73;11.15;;;;;;;;;;5067595;28;20049;-67
2021/06/18 05:06:23;;;;;;;17.35;11.25;;;;;;;;;;5069892;28;20031;-67
2021/06/18 05:08:48;;;;;;;21.45;11.93;;;;;;;;;;5070462;28;20071;-67
2021/06/18 05:11:14;;;;;;;20.17;11.52;;;;;;;;;;5073626;28;20020;-67
2021/06/18 05:13:39;;;;;;;19.45;11.48;;;;;;;;;;5074629;28;20052;-67
2021/06/18 05:16:05;;;;;;;16.73;10.43;;;;;;;;;;5066348;28;20056;-67
2021/06/18 05:18:30;;;;;;;18.30;11.40;;;;;;;;;;5072051;28;20043;-67
2021/06/18 05:20:55;;;;;;;18.80;11.50;;;;;;;;;;5072096;28;20044;-67
2021/06/18 05:23:21;;;;;;;19.67;11.20;;;;;;;;;;5071558;28;20031;-67
2021/06/18 05:25:46;;;;;;;18.30;11.07;;;;;;;;;;5068451;28;20036;-67
2021/06/18 05:28:11;;;;;;;18.90;10.57;;;;;;;;;;5073275;28;20041;-67
2021/06/18 05:30:37;;;;;;;20.17;11.63;;;;;;;;;;5071927;28;20024;-67
2021/06/18 05:33:02;;;;;;;19.92;11.70;;;;;;;;;;5071411;28;20040;-67
2021/06/18 05:35:27;;;;;;;26.17;12.32;;;;;;;;;;5069597;28;20069;-67
2021/06/18 05:37:53;;;;;;;22.02;12.27;;;;;;;;;;5071508;28;20361;-67
2021/06/18 05:40:18;;;;;;;26.45;13.77;;;;;;;;;;5073400;28;20457;-67
2021/06/18 05:42:44;;;;;;;21.55;12.38;;;;;;;;;;5071137;28;20116;-66
2021/06/18 05:45:09;;;;;;;21.65;12.88;;;;;;;;;;5069278;28;20029;-66
2021/06/18 05:47:35;;;;;;;19.30;12.55;;;;;;;;;;5070233;28;20096;-65
2021/06/18 05:50:00;;;;;;;19.92;12.25;;;;;;;;;;5071899;28;20496;-65
2021/06/18 05:52:25;;;;;;;22.65;12.32;;;;;;;;;;5072787;28;20336;-65
2021/06/18 05:54:51;;;;;;;18.20;11.80;;;;;;;;;;5069177;28;20464;-65
2021/06/18 05:57:16;;;;;;;18.25;11.70;;;;;;;;;;5069967;28;20021;-65
2021/06/18 05:59:41;;;;;;;20.67;11.05;;;;;;;;;;5072655;28;20099;-65
2021/06/18 06:02:07;;;;;;;21.85;11.95;;;;;;;;;;5071902;28;20074;-65
2021/06/18 06:04:32;;;;;;;19.30;10.98;;;;;;;;;;5070530;28;20017;-65
2021/06/18 06:06:57;;;;;;;22.08;11.75;;;;;;;;;;5071568;28;20450;-66
2021/06/18 06:09:23;;;;;;;18.88;11.27;;;;;;;;;;5073623;28;20480;-66
2021/06/18 06:11:48;;;;;;;21.48;11.88;;;;;;;;;;5075536;28;20591;-66
2021/06/18 06:14:17;;;;;;;18.02;10.55;;;;;;;;;;5074088;28;20043;-66
2021/06/18 06:16:43;;;;;;;17.50;10.80;;;;;;;;;;5067902;28;20104;-66
2021/06/18 06:19:08;;;;;;;26.23;12.10;;;;;;;;;;5071049;28;20465;-66
2021/06/18 06:21:34;;;;;;;16.95;11.25;;;;;;;;;;5071208;28;20035;-66
2021/06/18 06:23:59;;;;;;;18.42;10.75;;;;;;;;;;5069434;28;20032;-66
2021/06/18 06:26:25;;;;;;;16.02;10.48;;;;;;;;;;5067233;28;20020;-66
2021/06/18 06:28:50;;;;;;;18.92;10.18;;;;;;;;;;5070164;28;20017;-65
2021/06/18 06:31:15;;;;;;;16.33;10.30;;;;;;;;;;5072698;28;20044;-66
2021/06/18 06:33:41;;;;;;;17.80;10.30;;;;;;;;;;5072180;28;20020;-66
2021/06/18 06:36:06;;;;;;;16.92;9.90;;;;;;;;;;5072685;28;20062;-66
2021/06/18 06:38:31;;;;;;;15.15;9.57;;;;;;;;;;5074407;28;20129;-66
2021/06/18 06:40:57;;;;;;;15.88;9.88;;;;;;;;;;5069477;28;20029;-66
2021/06/18 06:43:22;;;;;;;15.18;9.43;;;;;;;;;;5071917;28;20020;-66
2021/06/18 06:45:48;;;;;;;16.70;9.02;;;;;;;;;;5070050;28;20429;-66
2021/06/18 06:48:14;;;;;;;14.38;8.77;;;;;;;;;;5073015;28;20021;-66
2021/06/18 06:50:39;;;;;;;17.50;9.15;;;;;;;;;;5072363;28;20480;-66
2021/06/18 06:53:07;;;;;;;14.50;9.02;;;;;;;;;;5070263;28;20105;-66
2021/06/18 06:55:32;;;;;;;15.38;8.75;;;;;;;;;;5070748;28;20016;-66
2021/06/18 06:57:57;;;;;;;15.88;8.43;;;;;;;;;;5070506;28;20104;-66
2021/06/18 07:00:23;;;;;;;15.40;9.35;;;;;;;;;;5072185;28;20039;-66
2021/06/18 07:02:48;;;;;;;14.82;8.85;;;;;;;;;;5070693;28;20048;-66
2021/06/18 07:05:13;;;;;;;14.18;8.20;;;;;;;;;;5066529;28;20025;-66
2021/06/18 07:07:39;;;;;;;15.48;8.55;;;;;;;;;;5068812;28;20039;-66
2021/06/18 07:10:05;;;;;;;15.88;9.27;;;;;;;;;;5070469;28;20017;-66
2021/06/18 07:12:31;;;;;;;15.70;9.00;;;;;;;;;;5074849;28;20431;-66
2021/06/18 07:14:56;;;;;;;19.67;8.55;;;;;;;;;;5072078;28;20016;-67
2021/06/18 07:17:22;;;;;;;12.73;7.97;;;;;;;;;;5072603;28;20021;-66
2021/06/18 07:19:47;;;;;;;12.85;8.38;;;;;;;;;;5072355;28;20043;-66
2021/06/18 07:22:12;;;;;;;14.27;8.93;;;;;;;;;;5072440;28;20032;-65
2021/06/18 07:24:38;;;;;;;16.10;9.15;;;;;;;;;;5068198;28;20028;-66
2021/06/18 07:27:03;;;;;;;12.27;8.00;;;;;;;;;;5071497;28;20023;-66
2021/06/18 07:29:29;;;;;;;15.40;8.45;;;;;;;;;;5068935;28;20016;-66
2021/06/18 07:31:54;;;;;;;12.27;7.72;;;;;;;;;;5064524;28;20035;-66
2021/06/18 07:34:20;;;;;;;16.08;7.80;;;;;;;;;;5070561;28;20373;-66
2021/06/18 07:36:45;;;;;;;15.40;9.10;;;;;;;;;;5071860;28;20028;-66
2021/06/18 07:39:10;;;;;;;13.77;8.30;;;;;;;;;;5071850;28;20024;-66
2021/06/18 07:41:38;;;;;;;14.63;8.63;;;;;;;;;;5069178;28;20024;-66
2021/06/18 07:44:04;;;;;;;13.48;8.18;;;;;;;;;;5071742;28;20024;-67
2021/06/18 07:46:29;;;;;;;13.52;7.85;;;;;;;;;;5065198;28;20622;-67
2021/06/18 07:48:55;;;;;;;15.93;8.05;;;;;;;;;;5071580;28;20031;-66
2021/06/18 07:51:20;;;;;;;16.40;8.55;;;;;;;;;;5070282;28;20105;-66
2021/06/18 07:53:45;;;;;;;15.93;9.20;;;;;;;;;;5071783;28;20035;-66
2021/06/18 07:56:11;;;;;;;13.98;8.10;;;;;;;;;;5071358;28;20025;-66
2021/06/18 07:58:37;;;;;;;18.85;8.55;;;;;;;;;;5071235;28;20475;-66
2021/06/18 08:01:03;;;;;;;14.52;8.27;;;;;;;;;;5065889;28;20017;-66
2021/06/18 08:03:28;;;;;;;15.70;9.00;;;;;;;;;;5069697;28;20032;-66
2021/06/18 08:05:54;;;;;;;15.00;8.57;;;;;;;;;;5069218;28;20077;-66
2021/06/18 08:08:19;;;;;;;17.20;9.02;;;;;;;;;;5065030;28;20020;-67
2021/06/18 08:10:44;;;;;;;18.85;9.98;;;;;;;;;;5071239;28;20032;-66
2021/06/18 08:13:09;;;;;;;15.88;9.02;;;;;;;;;;5068883;28;20012;-66
2021/06/18 08:15:35;;;;;;;16.73;8.48;;;;;;;;;;5068794;28;20044;-67
2021/06/18 08:18:00;;;;;;;11.55;7.65;;;;;;;;;;5070564;28;20020;-67
2021/06/18 08:20:29;;;;;;;12.45;6.65;;;;;;;;;;5067531;28;20045;-67
2021/06/18 08:22:55;;;;;;;12.30;6.35;;;;;;;;;;5068176;28;20035;-67
2021/06/18 08:25:20;;;;;;;13.07;7.00;;;;;;;;;;5069338;28;20032;-67
2021/06/18 08:27:46;;;;;;;16.35;8.35;;;;;;;;;;5070051;28;20036;-67
2021/06/18 08:30:11;;;;;;;12.88;7.28;;;;;;;;;;5071106;28;20453;-67
2021/06/18 08:32:40;;;;;;;12.30;7.45;;;;;;;;;;5071069;28;20005;-67
2021/06/18 08:35:05;;;;;;;12.57;7.35;;;;;;;;;;5067457;28;20019;-67
2021/06/18 08:37:31;;;;;;;12.57;7.28;;;;;;;;;;5069669;28;20361;-67
2021/06/18 08:39:56;;;;;;;13.48;7.43;;;;;;;;;;5070874;28;20047;-67
2021/06/18 08:42:21;;;;;;;10.43;6.60;;;;;;;;;;5073425;28;20498;-68
2021/06/18 08:44:47;;;;;;;11.20;5.78;;;;;;;;;;5069645;28;20074;-67
2021/06/18 08:47:14;;;;;;;13.43;6.32;;;;;;;;;;5075311;28;20043;-67
2021/06/18 08:49:39;;;;;;;11.88;6.07;;;;;;;;;;5074550;28;20009;-67
2021/06/18 08:52:05;;;;;;;11.23;6.18;;;;;;;;;;5074551;28;20066;-67
2021/06/18 08:54:43;;;;;;;11.35;6.00;;;;;;;;;;5073596;28;20052;-67
2021/06/18 08:57:10;;;;;;;11.45;6.63;;;;;;;;;;5068526;28;20028;-67
2021/06/18 08:59:35;;;;;;;11.13;6.53;;;;;;;;;;5068263;28;20009;-67
2021/06/18 09:02:00;;;;;;;10.25;6.45;;;;;;;;;;5075771;28;20123;-67
2021/06/18 09:04:25;;;;;;;7.97;5.60;;;;;;;;;;5074459;28;20017;-67
2021/06/18 09:06:56;;;;;;;10.15;6.50;;;;;;;;;;5074089;28;20056;-67
2021/06/18 09:09:23;;;;;;;10.35;5.90;;;;;;;;;;5067101;28;20013;-67
2021/06/18 09:11:56;;;;;;;11.77;5.75;;;;;;;;;;5074100;28;20021;-67
2021/06/18 09:14:28;;;;;;;11.85;6.28;;;;;;;;;;5071768;28;20073;-67
2021/06/18 09:17:24;;;;;;;11.20;5.50;;;;;;;;;;5075883;28;20028;-67
2021/06/18 09:19:53;;;;;;;9.75;5.05;;;;;;;;;;5064240;28;20120;-67
2021/06/18 09:22:33;;;;;;;9.18;4.88;;;;;;;;;;5072240;28;20021;-67
2021/06/18 09:25:00;;;;;;;10.17;5.60;;;;;;;;;;5073498;28;20104;-67
2021/06/18 09:27:30;;;;;;;9.10;5.57;;;;;;;;;;5074251;28;20279;-68
2021/06/18 09:29:55;;;;;;;9.85;5.50;;;;;;;;;;5070968;28;20031;-68
2021/06/18 09:32:20;;;;;;;8.75;4.97;;;;;;;;;;5073958;28;20024;-68
2021/06/18 09:37:36;;;;;;;7.35;4.85;;;;;;;;;;5069470;28;20032;-67
2021/06/18 09:40:22;;;;;;;10.73;5.28;;;;;;;;;;5071495;28;20040;-67
2021/06/18 09:42:49;;;;;;;11.07;5.57;;;;;;;;;;5071613;28;20048;-67
2021/06/18 09:45:17;;;;;;;9.00;5.18;;;;;;;;;;5069806;28;20021;-67
2021/06/18 09:47:42;;;;;;;9.48;5.97;;;;;;;;;;5069868;28;20160;-67
2021/06/18 09:50:36;;;;;;;7.93;5.07;;;;;;;;;;5069956;28;20048;-69
2021/06/18 09:53:31;;;;;;;10.05;6.28;;;;;;;;;;5067948;28;20028;-68
2021/06/18 09:56:04;;;;;;;7.72;4.50;;;;;;;;;;5056520;28;20423;-68
2021/06/18 09:58:50;;;;;;;10.82;6.45;;;;;;;;;;5069242;28;20031;-68
2021/06/18 10:01:24;;;;;;;11.85;6.70;;;;;;;;;;5072854;28;20031;-68
2021/06/18 10:04:00;;;;;;;11.77;6.60;;;;;;;;;;5073009;28;20143;-69
2021/06/18 10:06:26;;;;;;;11.38;6.82;;;;;;;;;;5073189;28;20070;-69
2021/06/18 10:08:52;;;;;;;9.98;6.18;;;;;;;;;;5069173;28;20024;-69
2021/06/18 10:11:17;;;;;;;12.18;5.88;;;;;;;;;;5071927;28;20023;-69
2021/06/18 10:13:43;;;;;;;12.75;7.15;;;;;;;;;;5071698;28;20481;-69
2021/06/18 10:16:08;;;;;;;10.05;6.00;;;;;;;;;;5068952;28;20024;-69
2021/06/18 10:18:34;;;;;;;9.32;5.20;;;;;;;;;;5075848;28;20028;-69
2021/06/18 10:21:02;;;;;;;9.65;4.68;;;;;;;;;;5065755;28;20033;-69
2021/06/18 10:23:29;;;;;;;10.00;5.80;;;;;;;;;;5066952;28;20508;-69
2021/06/18 10:26:01;;;;;;;9.88;5.90;;;;;;;;;;5075896;28;20477;-69
2021/06/18 10:28:28;;;;;;;9.70;5.90;;;;;;;;;;5069369;28;20021;-69
2021/06/18 10:30:54;;;;;;;11.80;6.35;;;;;;;;;;5070280;28;20040;-69
2021/06/18 10:33:30;;;;;;;10.65;5.68;;;;;;;;;;5070734;28;20020;-69
2021/06/18 10:36:07;;;;;;;10.57;5.95;;;;;;;;;;5069504;28;20050;-69
2021/06/18 10:38:36;;;;;;;13.27;6.63;;;;;;;;;;5070126;28;20024;-69
2021/06/18 10:41:37;;;;;;;12.93;7.10;;;;;;;;;;5070055;28;20056;-69
2021/06/18 10:44:02;;;;;;;;;;;;;;;;;;5004250;28;20092;-69
2021/06/18 10:46:29;;;;;;;8.43;5.27;;;;;;;;;;5007814;28;19960;-69
2021/06/18 10:49:14;;;;;;;14.45;6.35;;;;;;;;;;5004347;28;20025;-69
2021/06/18 10:51:43;;;;;;;9.40;5.45;;;;;;;;;;5006457;28;20426;-69
2021/06/18 10:54:34;;;;;;;11.40;5.95;;;;;;;;;;5008501;28;20092;-69
2021/06/18 10:56:59;;;;;;;;;;;;;;;;;;5004659;28;20022;-69
2021/06/18 10:59:31;;;;;;;9.40;5.77;;;;;;;;;;5008722;28;20285;-69
2021/06/18 11:01:57;;;;;;;8.07;5.38;;;;;;;;;;5006653;28;20288;-69
2021/06/18 11:04:41;;;;;;;9.18;4.95;;;;;;;;;;5023893;28;20033;-69
2021/06/18 11:07:39;;;;;;;8.68;5.45;;;;;;;;;;5024982;28;20116;-69
2021/06/18 11:10:22;;;;;;;11.65;5.22;;;;;;;;;;4992691;28;20022;-69
2021/06/18 11:13:04;;;;;;;9.65;5.40;;;;;;;;;;5027093;28;20428;-69
2021/06/18 11:15:39;;;;;;;16.75;5.90;;;;;;;;;;5027846;28;20040;-70
2021/06/18 11:18:16;;;;;;;10.15;5.45;;;;;;;;;;5045964;28;20342;-70
2021/06/18 11:20:50;;;;;;;11.23;5.88;;;;;;;;;;5069626;28;20024;-70
2021/06/18 11:23:17;;;;;;;13.43;6.43;;;;;;;;;;5070191;28;20012;-69
2021/06/18 11:25:54;;;;;;;10.10;6.05;;;;;;;;;;5066387;28;20476;-70
2021/06/18 11:28:31;;;;;;;11.82;5.90;;;;;;;;;;5067476;28;20012;-69
2021/06/18 11:31:06;;;;;;;11.20;5.20;;;;;;;;;;5068807;28;20029;-70
2021/06/18 11:33:45;;;;;;;9.57;5.55;;;;;;;;;;5069953;28;20027;-70
2021/06/18 11:36:37;;;;;;;10.13;5.32;;;;;;;;;;5068888;28;20048;-70
2021/06/18 11:39:15;;;;;;;9.48;5.95;;;;;;;;;;5059231;28;20464;-70
2021/06/18 11:41:43;;;;;;;10.30;6.20;;;;;;;;;;5069793;28;20025;-70
2021/06/18 11:44:12;;;;;;;8.50;5.32;;;;;;;;;;5068423;28;20091;-70
2021/06/18 11:46:38;;;;;;;7.65;5.47;;;;;;;;;;5065721;28;20044;-70
2021/06/18 11:49:11;;;;;;;10.40;5.93;;;;;;;;;;5062948;28;20055;-70
2021/06/18 11:51:36;;;;;;;7.60;5.43;;;;;;;;;;5067280;28;20031;-70
2021/06/18 11:54:02;;;;;;;9.75;4.97;;;;;;;;;;5067041;28;20012;-71
2021/06/18 11:56:29;;;;;;;7.03;4.53;;;;;;;;;;5067644;28;20013;-71
2021/06/18 11:58:55;;;;;;;6.80;4.53;;;;;;;;;;5060279;28;20021;-71
2021/06/18 12:01:21;;;;;;;8.38;4.60;;;;;;;;;;5063563;28;20105;-70
2021/06/18 12:03:51;;;;;;;7.80;4.13;;;;;;;;;;5069076;28;20497;-71
2021/06/18 12:06:17;;;;;;;7.10;4.32;;;;;;;;;;5051276;28;20021;-71
2021/06/18 12:09:01;;;;;;;8.75;4.00;;;;;;;;;;5055299;28;20402;-71
2021/06/18 12:11:30;;;;;;;7.43;4.40;;;;;;;;;;5051309;28;20487;-71
2021/06/18 12:13:55;;;;;;;6.22;3.70;;;;;;;;;;5054848;28;20036;-71
2021/06/18 12:16:27;;;;;;;8.63;3.63;;;;;;;;;;5061568;28;20016;-71
2021/06/18 12:18:53;;;;;;;7.93;3.83;;;;;;;;;;5069687;28;20045;-71
2021/06/18 12:21:31;;;;;;;8.40;3.60;;;;;;;;;;5059099;28;20040;-71
2021/06/18 12:24:03;;;;;;;8.35;3.30;;;;;;;;;;5076522;28;20477;-71
2021/06/18 12:26:28;;;;;;;6.90;3.63;;;;;;;;;;5070548;28;20017;-71
2021/06/18 12:28:54;;;;;;;6.22;4.03;;;;;;;;;;5062301;28;20021;-71
2021/06/18 12:31:19;;;;;;;6.88;3.78;;;;;;;;;;5074466;28;20145;-71
2021/06/18 12:33:48;;;;;;;6.47;3.63;;;;;;;;;;5072506;28;20063;-71
2021/06/18 12:36:20;;;;;;;8.93;3.63;;;;;;;;;;5066311;28;20055;-71
2021/06/18 12:38:49;;;;;;;6.45;3.85;;;;;;;;;;5065955;28;20017;-71
2021/06/18 12:41:27;;;;;;;8.15;3.83;;;;;;;;;;5054984;28;20439;-71
2021/06/18 12:43:59;;;;;;;6.78;3.83;;;;;;;;;;5065071;28;20033;-71
2021/06/18 12:46:24;;;;;;;8.77;4.57;;;;;;;;;;5059287;28;20036;-71
2021/06/18 12:48:50;;;;;;;8.80;3.90;;;;;;;;;;5064295;28;20021;-71
2021/06/18 12:51:19;;;;;;;8.68;3.72;;;;;;;;;;5064658;28;20034;-73
2021/06/18 12:53:44;;;;;;;9.60;3.58;;;;;;;;;;5073736;28;20017;-72
2021/06/18 12:56:13;;;;;;;9.35;4.38;;;;;;;;;;5074270;28;20062;-72
2021/06/18 12:58:39;;;;;;;7.93;4.53;;;;;;;;;;5065381;28;20401;-72
2021/06/18 13:01:08;;;;;;;7.35;4.90;;;;;;;;;;5054499;28;20031;-72
2021/06/18 13:03:40;;;;;;;9.38;4.50;;;;;;;;;;5063163;28;20084;-72
2021/06/18 13:06:06;;;;;;;8.88;5.10;;;;;;;;;;5059766;28;20028;-72
2021/06/18 13:08:32;;;;;;;6.25;3.80;;;;;;;;;;5066211;28;20563;-72
2021/06/18 13:10:58;;;;;;;9.55;4.43;;;;;;;;;;5067738;28;20019;-72
2021/06/18 13:13:25;;;;;;;9.00;4.70;;;;;;;;;;5068987;28;20376;-72
2021/06/18 13:15:51;;;;;;;6.82;4.45;;;;;;;;;;5074253;28;20526;-72
2021/06/18 13:18:16;;;;;;;8.30;4.30;;;;;;;;;;5071211;28;20025;-72
2021/06/18 13:20:42;;;;;;;9.48;4.97;;;;;;;;;;5067861;28;20013;-72
2021/06/18 13:23:26;;;;;;;7.57;4.70;;;;;;;;;;5071160;28;20016;-72
2021/06/18 13:26:21;;;;;;;8.55;4.65;;;;;;;;;;5060292;28;20075;-72
2021/06/18 13:28:48;;;;;;;7.63;4.63;;;;;;;;;;5008174;28;20046;-72
2021/06/18 13:31:18;;;;;;;7.93;5.10;;;;;;;;;;5006992;28;20141;-72
2021/06/18 13:33:51;;;;;;;8.57;4.82;;;;;;;;;;5021063;28;20040;-73
2021/06/18 13:36:24;;;;;;;9.02;4.88;;;;;;;;;;5011880;28;20578;-73
2021/06/18 13:38:49;;;;;;;7.35;4.65;;;;;;;;;;5019725;28;20108;-72
2021/06/18 13:41:14;;;;;;;6.72;4.20;;;;;;;;;;5011634;28;20022;-72
2021/06/18 13:43:40;;;;;;;7.60;4.00;;;;;;;;;;5018514;28;20101;-72
2021/06/18 13:46:05;;;;;;;7.18;4.57;;;;;;;;;;5011573;28;20065;-72
2021/06/18 13:48:31;;;;;;;7.28;4.28;;;;;;;;;;5017610;28;20100;-72
2021/06/18 13:50:56;;;;;;;8.77;4.32;;;;;;;;;;5011770;28;20449;-72
2021/06/18 13:53:21;;;;;;;19.08;4.40;;;;;;;;;;5016090;28;20026;-71
2021/06/18 13:55:52;;;;;;;9.88;4.75;;;;;;;;;;5011612;28;20017;-71
2021/06/18 13:58:17;;;;;;;10.77;4.32;;;;;;;;;;5014850;28;20105;-71
2021/06/18 14:00:43;;;;;;;7.45;4.70;;;;;;;;;;5011342;28;20419;-71
2021/06/18 14:03:09;;;;;;;8.27;4.45;;;;;;;;;;5013542;28;20442;-71
2021/06/18 14:05:35;;;;;;;7.45;4.50;;;;;;;;;;5043553;28;20421;-71
2021/06/18 14:08:00;;;;;;;7.15;4.63;;;;;;;;;;5062771;28;20059;-72
2021/06/18 14:10:25;;;;;;;8.57;4.38;;;;;;;;;;5053614;28;20024;-72
2021/06/18 14:12:51;;;;;;;7.75;4.00;;;;;;;;;;5053491;28;20462;-72
2021/06/18 14:15:28;;;;;;;7.22;4.20;;;;;;;;;;5053330;28;20086;-72
2021/06/18 14:17:54;;;;;;;10.30;4.90;;;;;;;;;;5056711;28;20033;-72
2021/06/18 14:20:19;;;;;;;8.30;4.75;;;;;;;;;;5072011;28;20375;-72
2021/06/18 14:22:45;;;;;;;6.43;4.30;;;;;;;;;;5066198;28;20024;-71
2021/06/18 14:25:10;;;;;;;8.07;4.32;;;;;;;;;;5071902;28;20442;-72
2021/06/18 14:27:35;;;;;;;8.13;4.32;;;;;;;;;;5072816;28;20388;-71
2021/06/18 14:30:01;;;;;;;6.18;4.07;;;;;;;;;;5072693;28;20023;-71
2021/06/18 14:32:26;;;;;;;6.18;3.85;;;;;;;;;;5067126;28;20414;-72
2021/06/18 14:34:52;;;;;;;6.75;4.50;;;;;;;;;;5065431;28;20028;-72
2021/06/18 14:37:17;;;;;;;8.45;4.80;;;;;;;;;;5067365;28;20067;-71